Grand Marais Cook County Airport


Codes: KCKC/GRM
Name: Grand Marais Cook County Airport
City: Grand Marais
Country: United States
Elevation: 1799 ft.
Website:
Wikipedia:

Photos at Grand Marais Cook County Airport


   Photos courtesy of SpottingLog. You can add your own sightings and photos by signing up for a free trial today.



No photos found.

Weather at Grand Marais Cook County Airport


Time (UTC)DescriptionTempratureWindCloud coverageVisibilityPressureHumidity
19-Apr-2024 03:00Overcast Clouds3°C7 mph, W100%10000m1013hPa54%
19-Apr-2024 06:00Overcast Clouds1°C9 mph, W87%10000m1013hPa62%
19-Apr-2024 09:00Broken Clouds-1°C9 mph, W73%10000m1012hPa68%
19-Apr-2024 12:00Broken Clouds-2°C11 mph, W74%10000m1011hPa74%
19-Apr-2024 15:00Overcast Clouds-0°C13 mph, W99%10000m1011hPa57%
19-Apr-2024 18:00Overcast Clouds1°C13 mph, W99%10000m1010hPa50%
19-Apr-2024 21:00Overcast Clouds3°C13 mph, W100%10000m1010hPa50%
20-Apr-2024 00:00Light Rain1°C13 mph, NW99%10000m1011hPa68%
20-Apr-2024 03:00Overcast Clouds-1°C13 mph, NW100%10000m1013hPa76%
20-Apr-2024 06:00Overcast Clouds-2°C13 mph, NW100%10000m1014hPa82%
20-Apr-2024 09:00Light Snow-3°C13 mph, NW79%10000m1016hPa80%
20-Apr-2024 12:00Broken Clouds-3°C16 mph, NW62%10000m1018hPa76%
20-Apr-2024 15:00Scattered Clouds-0°C16 mph, NW34%10000m1019hPa57%
20-Apr-2024 18:00Scattered Clouds6°C11 mph, NW25%10000m1018hPa29%
20-Apr-2024 21:00Broken Clouds6°C13 mph, NW54%10000m1017hPa32%
21-Apr-2024 00:00Broken Clouds4°C13 mph, NW63%10000m1017hPa50%
21-Apr-2024 03:00Scattered Clouds1°C11 mph, NW30%10000m1018hPa68%
21-Apr-2024 06:00Few Clouds0°C9 mph, W20%10000m1017hPa75%
21-Apr-2024 09:00Few Clouds-1°C9 mph, W21%10000m1016hPa79%
21-Apr-2024 12:00Scattered Clouds-0°C11 mph, W35%10000m1016hPa77%
21-Apr-2024 15:00Scattered Clouds5°C13 mph, NW39%10000m1015hPa54%
21-Apr-2024 18:00Broken Clouds7°C13 mph, NW65%10000m1014hPa51%
21-Apr-2024 21:00Overcast Clouds7°C11 mph, NW98%10000m1014hPa60%
22-Apr-2024 00:00Light Rain4°C7 mph, NW99%10000m1015hPa67%
22-Apr-2024 03:00Scattered Clouds-1°C2 mph, N28%10000m1017hPa85%
22-Apr-2024 06:00Few Clouds-2°C9 mph, SE24%7443m1018hPa96%
22-Apr-2024 09:00Overcast Clouds-2°C7 mph, SE89%10000m1017hPa77%
22-Apr-2024 12:00Overcast Clouds-2°C7 mph, E89%10000m1016hPa77%
22-Apr-2024 15:00Overcast Clouds2°C7 mph, SE100%10000m1015hPa63%
22-Apr-2024 18:00Overcast Clouds4°C9 mph, SE100%10000m1013hPa58%
22-Apr-2024 21:00Overcast Clouds5°C9 mph, SE100%10000m1011hPa54%
23-Apr-2024 00:00Overcast Clouds0°C9 mph, E100%10000m1012hPa71%
23-Apr-2024 03:00Overcast Clouds-2°C9 mph, NE100%10000m1013hPa80%
23-Apr-2024 06:00Overcast Clouds-2°C11 mph, NE100%10000m1012hPa68%
23-Apr-2024 09:00Overcast Clouds-4°C11 mph, NE100%10000m1013hPa55%
23-Apr-2024 12:00Overcast Clouds-5°C13 mph, NE100%10000m1016hPa60%
23-Apr-2024 15:00Few Clouds-1°C13 mph, NE18%10000m1018hPa37%
23-Apr-2024 18:00Clear Sky3°C11 mph, N9%10000m1019hPa25%
23-Apr-2024 21:00Clear Sky3°C11 mph, N0%10000m1022hPa24%
24-Apr-2024 00:00Clear Sky1°C9 mph, NE0%10000m1025hPa31%